createdAt,value
2022-09-28T00:04:37.699Z,99335.47
2022-09-28T00:09:39.777Z,99333.94
2022-09-28T00:14:43.095Z,99327.66
2022-09-28T00:19:45.056Z,99324.00
2022-09-28T00:24:47.249Z,99316.13
2022-09-28T00:29:50.880Z,99322.22
2022-09-28T00:34:52.912Z,99317.94
2022-09-28T00:39:54.991Z,99310.88
2022-09-28T00:44:58.774Z,99317.09
2022-09-28T00:50:03.904Z,99300.31
2022-09-28T00:55:08.848Z,99302.06
2022-09-28T01:00:14.362Z,99306.50
2022-09-28T01:05:18.344Z,99306.47
2022-09-28T01:10:19.926Z,99303.91
2022-09-28T01:15:26.625Z,99302.16
2022-09-28T01:20:50.267Z,99295.13
2022-09-28T01:25:55.768Z,99296.00
2022-09-28T01:31:05.987Z,99284.69
2022-09-28T01:36:14.214Z,99285.41
2022-09-28T01:41:17.239Z,99283.63
2022-09-28T01:46:22.353Z,99281.00
2022-09-28T01:51:32.407Z,99281.97
2022-09-28T01:56:39.733Z,99281.00
2022-09-28T02:01:48.252Z,99272.34
2022-09-28T02:06:56.336Z,99271.41
2022-09-28T02:12:02.729Z,99269.69
2022-09-28T02:17:06.680Z,99276.88
2022-09-28T02:22:19.194Z,99270.84
2022-09-28T02:27:29.488Z,99266.34
2022-09-28T02:32:35.441Z,99266.19
2022-09-28T02:37:37.602Z,99257.56
2022-09-28T02:42:49.204Z,99262.94
2022-09-28T02:48:05.742Z,99263.88
2022-09-28T02:53:25.612Z,99257.78
2022-09-28T02:58:39.481Z,99254.97
2022-09-28T03:03:50.872Z,99243.50
2022-09-28T03:08:59.823Z,99236.63
2022-09-28T03:14:03.067Z,99227.34
2022-09-28T03:19:06.435Z,99221.41
2022-09-28T03:24:08.661Z,99223.81
2022-09-28T03:29:10.774Z,99220.19
2022-09-28T03:34:14.226Z,99209.84
2022-09-28T03:39:15.869Z,99207.59
2022-09-28T03:44:17.500Z,99214.88
2022-09-28T03:49:20.421Z,99215.94
2022-09-28T03:54:22.500Z,99222.38
2022-09-28T03:59:24.220Z,99216.94
2022-09-28T04:04:27.535Z,99208.50
2022-09-28T04:09:29.156Z,99201.19
2022-09-28T04:14:30.785Z,99192.41
2022-09-28T04:19:33.782Z,99195.16
2022-09-28T04:24:35.797Z,99187.91
2022-09-28T04:29:37.777Z,99194.88
2022-09-28T04:34:44.089Z,99190.31
2022-09-28T04:39:48.574Z,99199.91
2022-09-28T04:44:50.690Z,99197.25
2022-09-28T04:49:53.674Z,99190.09
2022-09-28T04:54:55.870Z,99202.38
2022-09-28T04:59:57.988Z,99195.41
2022-09-28T05:05:01.306Z,99197.22
2022-09-28T05:10:03.144Z,99202.47
2022-09-28T05:15:06.019Z,99197.97
2022-09-28T05:20:10.091Z,99205.75
2022-09-28T05:25:12.002Z,99204.84
2022-09-28T05:30:14.426Z,99188.06
2022-09-28T05:35:18.285Z,99197.53
2022-09-28T05:40:19.911Z,99181.69
2022-09-28T05:45:21.840Z,99188.81
2022-09-28T05:50:25.332Z,99181.97
2022-09-28T05:55:28.084Z,99171.47
2022-09-28T06:00:32.258Z,99166.22
2022-09-28T06:05:36.334Z,99167.97
2022-09-28T06:10:38.529Z,99156.47
2022-09-28T06:15:42.479Z,99158.97
2022-09-28T06:20:45.434Z,99159.75
2022-09-28T06:25:47.483Z,99163.16
2022-09-28T06:30:49.484Z,99159.41
2022-09-28T06:35:53.616Z,99156.50
2022-09-28T06:40:57.535Z,99156.06
2022-09-28T06:45:59.991Z,99150.41
2022-09-28T06:51:03.437Z,99149.41
2022-09-28T06:56:08.193Z,99148.84
2022-09-28T07:01:10.204Z,99158.00
2022-09-28T07:06:13.571Z,99146.97
2022-09-28T07:11:15.614Z,99148.44
2022-09-28T07:16:17.347Z,99156.03
2022-09-28T07:21:29.149Z,99160.44
2022-09-28T07:26:32.233Z,99175.50
2022-09-28T07:31:34.281Z,99165.16
2022-09-28T07:36:37.354Z,99162.72
2022-09-28T07:41:39.522Z,99166.59
2022-09-28T07:46:41.789Z,99168.16
2022-09-28T07:51:45.196Z,99168.47
2022-09-28T07:56:47.570Z,99174.41
2022-09-28T08:01:49.981Z,99163.75
2022-09-28T08:06:54.027Z,99164.84
2022-09-28T08:11:56.530Z,99177.81
2022-09-28T08:16:58.799Z,99176.31
2022-09-28T08:22:01.739Z,99172.19
2022-09-28T08:27:04.013Z,99176.91
2022-09-28T08:32:07.318Z,99177.25
2022-09-28T08:37:10.766Z,99178.50
2022-09-28T08:42:30.807Z,99172.41
2022-09-28T08:47:37.680Z,99180.59
2022-09-28T08:52:41.250Z,99171.00
2022-09-28T08:57:48.584Z,99173.00
2022-09-28T09:02:50.701Z,99175.53
2022-09-28T09:08:14.024Z,99178.94
2022-09-28T09:13:40.842Z,99185.88
2022-09-28T09:18:49.282Z,99182.53
2022-09-28T09:23:55.833Z,99185.81
2022-09-28T09:29:21.958Z,99191.75
2022-09-28T09:34:48.226Z,99184.44
2022-09-28T09:40:04.237Z,99188.00
2022-09-28T09:45:30.594Z,99183.66
2022-09-28T09:50:35.531Z,99181.69
2022-09-28T09:55:41.856Z,99190.47
2022-09-28T10:00:47.361Z,99192.00
2022-09-28T10:05:56.299Z,99194.31
2022-09-28T10:11:07.912Z,99191.66
2022-09-28T10:16:09.623Z,99198.91
2022-09-28T10:21:13.400Z,99204.53
2022-09-28T10:26:24.919Z,99205.97
2022-09-28T10:31:34.671Z,99219.44
2022-09-28T10:36:47.045Z,99214.09
2022-09-28T10:41:51.197Z,99223.75
2022-09-28T10:46:57.117Z,99219.72
2022-09-28T10:51:58.826Z,99218.88
2022-09-28T10:57:01.819Z,99231.00
2022-09-28T11:02:20.851Z,99228.31
2022-09-28T11:07:24.302Z,99222.78
2022-09-28T11:12:37.214Z,99220.97
2022-09-28T11:17:39.744Z,99221.81
2022-09-28T11:22:41.653Z,99224.34
2022-09-28T11:27:57.073Z,99222.50
2022-09-28T11:33:03.680Z,99217.81
2022-09-28T11:38:22.284Z,99216.22
2022-09-28T11:43:42.634Z,99209.44
2022-09-28T11:48:50.383Z,99210.50
2022-09-28T11:53:56.818Z,99211.72
2022-09-28T11:59:03.705Z,99215.03
2022-09-28T12:04:12.339Z,99212.63
2022-09-28T12:09:20.843Z,99219.38
2022-09-28T12:14:28.892Z,99211.34
2022-09-28T12:19:34.255Z,99213.94
2022-09-28T12:24:39.533Z,99217.88
2022-09-28T12:29:46.316Z,99214.78
2022-09-28T12:34:48.023Z,99208.91
2022-09-28T12:40:07.688Z,99210.75
2022-09-28T12:45:23.783Z,99208.03
2022-09-28T12:50:42.834Z,99204.34
2022-09-28T12:55:58.492Z,99218.25
2022-09-28T13:01:14.689Z,99212.91
2022-09-28T13:06:28.965Z,99218.50
2022-09-28T13:11:37.178Z,99219.38
2022-09-28T13:16:50.778Z,99220.47
2022-09-28T13:21:59.010Z,99210.63
2022-09-28T13:27:07.609Z,99215.28
2022-09-28T13:32:12.098Z,99210.75
2022-09-28T13:37:23.167Z,99209.44
2022-09-28T13:42:59.279Z,99213.97
2022-09-28T13:48:13.090Z,99215.16
2022-09-28T13:53:26.875Z,99223.66
2022-09-28T13:58:32.688Z,99224.59
2022-09-28T14:03:55.615Z,99227.81
2022-09-28T14:09:22.813Z,99230.22
2022-09-28T14:14:27.643Z,99235.66
2022-09-28T14:19:33.707Z,99245.03
2022-09-28T14:24:56.027Z,99249.63
2022-09-28T14:30:07.586Z,99249.09
2022-09-28T14:35:20.135Z,99258.34
2022-09-28T14:40:25.490Z,99267.25
2022-09-28T14:45:36.041Z,99269.06
2022-09-28T14:50:39.522Z,99270.09
2022-09-28T14:55:46.510Z,99274.34
2022-09-28T15:00:54.212Z,99284.25
2022-09-28T15:05:57.577Z,99282.59
2022-09-28T15:10:59.636Z,99276.34
2022-09-28T15:16:06.751Z,99284.78
2022-09-28T15:21:10.430Z,99294.34
2022-09-28T15:26:23.041Z,99291.91
2022-09-28T15:31:28.224Z,99298.25
2022-09-28T15:36:34.998Z,99300.13
2022-09-28T15:41:36.845Z,99303.19
2022-09-28T15:46:41.218Z,99311.84
2022-09-28T15:51:51.016Z,99303.31
2022-09-28T15:56:55.489Z,99306.91
2022-09-28T16:02:11.670Z,99306.69
2022-09-28T16:07:24.760Z,99314.19
2022-09-28T16:12:32.531Z,99302.13
2022-09-28T16:17:35.335Z,99328.13
2022-09-28T16:22:42.921Z,99330.22
2022-09-28T16:27:45.464Z,99328.84
2022-09-28T16:32:58.072Z,99339.72
2022-09-28T16:38:06.095Z,99346.25
2022-09-28T16:43:13.278Z,99348.97
2022-09-28T16:48:16.028Z,99349.38
2022-09-28T16:53:19.001Z,99355.53
2022-09-28T16:58:21.037Z,99357.50
2022-09-28T17:03:23.290Z,99360.31
2022-09-28T17:08:26.291Z,99368.44
2022-09-28T17:13:30.590Z,99378.28
2022-09-28T17:18:32.318Z,99373.78
2022-09-28T17:23:36.054Z,99386.94
2022-09-28T17:28:38.056Z,99389.56
2022-09-28T17:33:40.100Z,99390.66
2022-09-28T17:38:43.629Z,99391.47
2022-09-28T17:43:46.287Z,99390.84
2022-09-28T17:48:48.273Z,99402.34
2022-09-28T17:53:51.627Z,99401.78
2022-09-28T17:58:53.965Z,99404.47
2022-09-28T18:03:55.960Z,99395.63
2022-09-28T18:08:59.272Z,99407.31
2022-09-28T18:14:01.289Z,99406.63
2022-09-28T18:19:03.329Z,99410.09
2022-09-28T18:24:06.726Z,99410.19
2022-09-28T18:29:08.423Z,99427.06
2022-09-28T18:34:10.047Z,99427.00
2022-09-28T18:39:13.216Z,99425.16
2022-09-28T18:44:15.013Z,99432.25
2022-09-28T18:49:17.059Z,99442.03
2022-09-28T18:54:20.290Z,99442.72
2022-09-28T18:59:22.493Z,99448.97
2022-09-28T19:04:24.388Z,99458.03
2022-09-28T19:09:27.903Z,99456.41
2022-09-28T19:14:29.920Z,99459.34
2022-09-28T19:19:32.354Z,99462.19
2022-09-28T19:24:35.972Z,99469.41
2022-09-28T19:29:37.679Z,99471.78
2022-09-28T19:34:39.388Z,99472.34
2022-09-28T19:39:43.067Z,99470.78
2022-09-28T19:44:45.428Z,99474.66
2022-09-28T19:49:47.253Z,99479.31
2022-09-28T19:54:52.433Z,99478.63
2022-09-28T19:59:59.222Z,99472.44
2022-09-28T20:05:04.377Z,99477.81
2022-09-28T20:10:08.328Z,99484.25
2022-09-28T20:15:10.749Z,99496.81
2022-09-28T20:20:12.804Z,99500.31
2022-09-28T20:25:16.540Z,99493.59
2022-09-28T20:30:18.478Z,99514.75
2022-09-28T20:35:32.259Z,99516.34
2022-09-28T20:40:36.476Z,99519.56
2022-09-28T20:45:38.583Z,99516.75
2022-09-28T20:50:40.510Z,99528.88
2022-09-28T20:55:43.480Z,99529.66
2022-09-28T21:00:45.399Z,99527.66
2022-09-28T21:05:51.031Z,99530.94
2022-09-28T21:10:54.024Z,99536.25
2022-09-28T21:16:00.915Z,99540.56
2022-09-28T21:21:06.059Z,99541.34
2022-09-28T21:26:11.599Z,99547.47
2022-09-28T21:31:14.252Z,99547.31
2022-09-28T21:36:16.311Z,99552.59
2022-09-28T21:41:19.713Z,99553.63
2022-09-28T21:46:22.304Z,99558.94
2022-09-28T21:51:24.228Z,99564.19
2022-09-28T21:56:27.574Z,99572.19
2022-09-28T22:01:29.770Z,99568.56
2022-09-28T22:06:31.806Z,99574.75
2022-09-28T22:11:35.311Z,99581.91
2022-09-28T22:16:37.174Z,99573.38
2022-09-28T22:21:38.899Z,99570.06
2022-09-28T22:26:42.264Z,99571.34
2022-09-28T22:31:43.986Z,99577.88
2022-09-28T22:36:46.066Z,99585.34
2022-09-28T22:41:49.026Z,99578.53
2022-09-28T22:46:50.995Z,99585.75
2022-09-28T22:51:53.150Z,99585.88
2022-09-28T22:56:56.115Z,99592.13
2022-09-28T23:01:58.863Z,99593.22
2022-09-28T23:07:02.088Z,99603.78
2022-09-28T23:12:06.031Z,99599.25
2022-09-28T23:17:08.349Z,99595.47
2022-09-28T23:22:09.976Z,99594.72
2022-09-28T23:27:13.221Z,99596.50
2022-09-28T23:32:16.253Z,99590.19
2022-09-28T23:37:18.010Z,99585.00
2022-09-28T23:42:21.338Z,99587.50
2022-09-28T23:47:22.939Z,99588.94
2022-09-28T23:52:24.935Z,99594.88
2022-09-28T23:57:27.907Z,99596.59
